createdAt,value
2023-05-25T00:01:01.833Z,101092.34
2023-05-25T00:02:05.514Z,101084.31
2023-05-25T00:03:10.293Z,101090.88
2023-05-25T00:04:17.565Z,101086.69
2023-05-25T00:05:21.250Z,101092.41
2023-05-25T00:06:23.552Z,101095.19
2023-05-25T00:07:25.866Z,101085.47
2023-05-25T00:08:29.107Z,101077.41
2023-05-25T00:09:31.487Z,101081.25
2023-05-25T00:10:33.859Z,101083.16
2023-05-25T00:11:36.488Z,101080.63
2023-05-25T00:12:38.858Z,101090.81
2023-05-25T00:13:41.251Z,101089.34
2023-05-25T00:14:43.575Z,101089.34
2023-05-25T00:15:46.105Z,101093.16
2023-05-25T00:16:49.129Z,101093.41
2023-05-25T00:17:54.800Z,101098.03
2023-05-25T00:18:57.897Z,101096.38
2023-05-25T00:20:10.865Z,101088.34
2023-05-25T00:21:14.277Z,101097.69
2023-05-25T00:22:16.940Z,101096.81
2023-05-25T00:23:19.251Z,101098.75
2023-05-25T00:24:21.546Z,101094.31
2023-05-25T00:25:23.876Z,101092.59
2023-05-25T00:26:26.306Z,101084.34
2023-05-25T00:27:28.619Z,101092.59
2023-05-25T00:28:31.077Z,101089.25
2023-05-25T00:29:33.954Z,101088.41
2023-05-25T00:30:36.697Z,101088.63
2023-05-25T00:31:39.133Z,101093.31
2023-05-25T00:32:41.565Z,101090.75
2023-05-25T00:33:44.394Z,101091.84
2023-05-25T00:34:47.537Z,101091.22
2023-05-25T00:35:49.866Z,101095.66
2023-05-25T00:36:52.199Z,101082.97
2023-05-25T00:37:54.487Z,101086.78
2023-05-25T00:38:56.884Z,101092.50
2023-05-25T00:39:59.242Z,101093.34
2023-05-25T00:41:02.838Z,101081.75
2023-05-25T00:42:06.703Z,101091.88
2023-05-25T00:43:09.652Z,101091.06
2023-05-25T00:44:15.162Z,101094.88
2023-05-25T00:45:17.719Z,101094.03
2023-05-25T00:46:20.096Z,101084.09
2023-05-25T00:47:22.898Z,101093.19
2023-05-25T00:48:27.981Z,101091.53
2023-05-25T00:49:33.944Z,101091.53
2023-05-25T00:50:42.175Z,101087.31
2023-05-25T00:51:48.333Z,101090.88
2023-05-25T00:52:50.897Z,101091.13
2023-05-25T00:53:53.530Z,101084.78
2023-05-25T00:55:00.929Z,101092.41
2023-05-25T00:56:11.100Z,101089.66
2023-05-25T00:57:16.806Z,101087.38
2023-05-25T00:58:22.143Z,101089.25
2023-05-25T00:59:29.025Z,101087.56
2023-05-25T01:00:33.495Z,101094.16
2023-05-25T01:01:40.468Z,101094.16
2023-05-25T01:02:44.171Z,101100.09
2023-05-25T01:03:54.055Z,101091.00
2023-05-25T01:05:00.346Z,101089.56
2023-05-25T01:06:07.556Z,101089.78
2023-05-25T01:07:11.672Z,101094.44
2023-05-25T01:08:17.139Z,101090.22
2023-05-25T01:09:22.598Z,101089.38
2023-05-25T01:10:26.252Z,101092.13
2023-05-25T01:11:33.567Z,101087.94
2023-05-25T01:12:38.783Z,101089.84
2023-05-25T01:13:44.325Z,101094.72
2023-05-25T01:14:48.818Z,101091.34
2023-05-25T01:15:51.864Z,101089.66
2023-05-25T01:16:57.550Z,101089.66
2023-05-25T01:18:00.274Z,101090.09
2023-05-25T01:19:04.687Z,101093.91
2023-05-25T01:20:11.744Z,101092.25
2023-05-25T01:21:23.262Z,101095.19
2023-05-25T01:22:34.426Z,101100.09
2023-05-25T01:23:38.984Z,101095.88
2023-05-25T01:25:03.964Z,101096.94
2023-05-25T01:26:11.609Z,101099.91
2023-05-25T01:27:20.002Z,101098.22
2023-05-25T01:28:27.002Z,101106.72
2023-05-25T01:29:31.382Z,101108.81
2023-05-25T01:30:36.776Z,101100.81
2023-05-25T01:31:40.314Z,101105.47
2023-05-25T01:32:44.173Z,101105.69
2023-05-25T01:33:47.393Z,101109.50
2023-05-25T01:34:50.567Z,101110.56
2023-05-25T01:35:52.870Z,101111.63
2023-05-25T01:36:55.282Z,101114.59
2023-05-25T01:37:59.043Z,101113.97
2023-05-25T01:39:01.436Z,101116.72
2023-05-25T01:40:08.671Z,101107.63
2023-05-25T01:41:11.146Z,101120.75
2023-05-25T01:42:13.474Z,101115.47
2023-05-25T01:43:16.839Z,101114.66
2023-05-25T01:44:19.776Z,101119.50
2023-05-25T01:45:22.403Z,101111.25
2023-05-25T01:46:37.118Z,101113.19
2023-05-25T01:47:54.330Z,101117.84
2023-05-25T01:49:26.676Z,101107.28
2023-05-25T01:50:51.306Z,101110.25
2023-05-25T01:52:17.829Z,101107.72
2023-05-25T01:53:24.089Z,101112.38
2023-05-25T01:54:47.323Z,101104.34
2023-05-25T01:56:02.372Z,101106.50
2023-05-25T01:57:10.446Z,101101.19
2023-05-25T01:58:15.318Z,101105.84
2023-05-25T01:59:20.933Z,101101.41
2023-05-25T02:00:25.974Z,101102.47
2023-05-25T02:01:28.554Z,101094.44
2023-05-25T02:02:33.285Z,101101.63
2023-05-25T02:03:37.669Z,101101.00
2023-05-25T02:04:42.588Z,101106.94
2023-05-25T02:05:46.522Z,101100.63
2023-05-25T02:06:49.486Z,101100.63
2023-05-25T02:07:52.629Z,101099.94
2023-05-25T02:08:54.952Z,101101.00
2023-05-25T02:09:57.565Z,101097.44
2023-05-25T02:11:00.074Z,101100.19
2023-05-25T02:12:03.440Z,101102.28
2023-05-25T02:13:05.999Z,101101.47
2023-05-25T02:14:09.319Z,101099.78
2023-05-25T02:15:12.217Z,101109.06
2023-05-25T02:16:14.599Z,101106.31
2023-05-25T02:17:20.673Z,101108.22
2023-05-25T02:18:23.860Z,101110.16
2023-05-25T02:19:30.302Z,101103.78
2023-05-25T02:20:33.011Z,101113.09
2023-05-25T02:21:38.467Z,101110.34
2023-05-25T02:22:40.847Z,101114.19
2023-05-25T02:23:43.550Z,101114.38
2023-05-25T02:24:46.828Z,101111.63
2023-05-25T02:25:49.208Z,101116.28
2023-05-25T02:26:52.228Z,101120.94
2023-05-25T02:27:56.027Z,101117.56
2023-05-25T02:28:58.342Z,101118.63
2023-05-25T02:30:00.687Z,101124.13
2023-05-25T02:31:04.498Z,101126.88
2023-05-25T02:32:07.081Z,101120.75
2023-05-25T02:33:09.520Z,101123.50
2023-05-25T02:34:12.052Z,101123.69
2023-05-25T02:35:15.762Z,101122.88
2023-05-25T02:36:18.337Z,101122.03
2023-05-25T02:37:21.399Z,101124.78
2023-05-25T02:38:25.315Z,101120.34
2023-05-25T02:39:28.854Z,101121.19
2023-05-25T02:40:33.288Z,101124.16
2023-05-25T02:41:35.658Z,101124.97
2023-05-25T02:42:38.334Z,101121.41
2023-05-25T02:43:40.790Z,101119.72
2023-05-25T02:44:48.481Z,101117.81
2023-05-25T02:45:50.876Z,101118.88
2023-05-25T02:46:53.322Z,101122.44
2023-05-25T02:47:55.878Z,101120.78
2023-05-25T02:49:00.185Z,101123.53
2023-05-25T02:50:03.295Z,101123.72
2023-05-25T02:51:07.951Z,101116.34
2023-05-25T02:52:10.314Z,101116.13
2023-05-25T02:53:12.712Z,101122.69
2023-05-25T02:54:15.009Z,101123.53
2023-05-25T02:55:18.978Z,101125.44
2023-05-25T02:56:23.073Z,101117.19
2023-05-25T02:57:26.144Z,101120.97
2023-05-25T02:58:28.610Z,101121.84
2023-05-25T02:59:43.272Z,101130.31
2023-05-25T03:00:47.042Z,101125.66
2023-05-25T03:01:49.782Z,101135.81
2023-05-25T03:02:52.211Z,101133.25
2023-05-25T03:03:55.296Z,101133.25
2023-05-25T03:05:04.170Z,101134.13
2023-05-25T03:06:07.845Z,101134.34
2023-05-25T03:07:10.190Z,101129.91
2023-05-25T03:08:13.364Z,101134.53
2023-05-25T03:09:16.039Z,101132.00
2023-05-25T03:10:18.313Z,101138.34
2023-05-25T03:11:21.312Z,101136.66
2023-05-25T03:12:24.272Z,101136.66
2023-05-25T03:13:27.010Z,101136.88
2023-05-25T03:14:29.388Z,101132.22
2023-05-25T03:15:38.298Z,101137.72
2023-05-25T03:16:40.744Z,101143.44
2023-05-25T03:17:43.208Z,101140.69
2023-05-25T03:18:46.046Z,101142.56
2023-05-25T03:19:48.442Z,101144.47
2023-05-25T03:20:50.893Z,101151.03
2023-05-25T03:21:53.737Z,101148.28
2023-05-25T03:22:56.247Z,101143.84
2023-05-25T03:23:59.668Z,101143.00
2023-05-25T03:25:02.624Z,101146.81
2023-05-25T03:26:05.042Z,101145.97
2023-05-25T03:27:08.837Z,101152.31
2023-05-25T03:28:11.626Z,101151.47
2023-05-25T03:29:14.678Z,101151.47
2023-05-25T03:30:17.121Z,101150.59
2023-05-25T03:31:21.758Z,101151.47
2023-05-25T03:32:24.462Z,101154.22
2023-05-25T03:33:27.059Z,101162.47
2023-05-25T03:34:30.289Z,101159.72
2023-05-25T03:35:33.110Z,101162.47
2023-05-25T03:36:35.450Z,101157.78
2023-05-25T03:37:37.895Z,101160.31
2023-05-25T03:38:40.591Z,101154.00
2023-05-25T03:39:42.938Z,101158.44
2023-05-25T03:40:45.300Z,101158.22
2023-05-25T03:41:47.767Z,101156.31
2023-05-25T03:42:50.602Z,101159.69
2023-05-25T03:43:52.943Z,101160.53
2023-05-25T03:44:55.943Z,101164.53
2023-05-25T03:45:58.939Z,101161.56
2023-05-25T03:47:01.313Z,101163.28
2023-05-25T03:48:04.948Z,101160.91
2023-05-25T03:49:07.354Z,101172.53
2023-05-25T03:50:11.121Z,101164.72
2023-05-25T03:51:13.415Z,101166.38
2023-05-25T03:52:15.734Z,101173.16
2023-05-25T03:53:18.155Z,101173.53
2023-05-25T03:54:20.801Z,101181.13
2023-05-25T03:55:23.911Z,101179.03
2023-05-25T03:56:27.549Z,101176.66
2023-05-25T03:57:29.961Z,101175.19
2023-05-25T03:58:35.416Z,101181.97
2023-05-25T03:59:37.756Z,101174.97
2023-05-25T04:00:40.144Z,101176.44
2023-05-25T04:01:42.524Z,101174.94
2023-05-25T04:02:44.922Z,101181.69
2023-05-25T04:03:47.572Z,101181.03
2023-05-25T04:04:52.114Z,101185.03
2023-05-25T04:05:54.436Z,101180.75
2023-05-25T04:06:56.756Z,101182.00
2023-05-25T04:07:59.465Z,101183.25
2023-05-25T04:09:01.820Z,101184.50
2023-05-25T04:10:05.003Z,101187.22
2023-05-25T04:11:07.756Z,101188.47
2023-05-25T04:12:10.128Z,101191.63
2023-05-25T04:13:13.018Z,101189.25
2023-05-25T04:14:15.482Z,101186.66
2023-05-25T04:15:18.766Z,101194.28
2023-05-25T04:16:30.268Z,101202.47
2023-05-25T04:17:39.080Z,101201.81
2023-05-25T04:18:41.902Z,101201.75
2023-05-25T04:19:44.327Z,101196.44
2023-05-25T04:20:47.187Z,101200.19
2023-05-25T04:21:51.018Z,101194.84
2023-05-25T04:22:53.742Z,101196.47
2023-05-25T04:23:56.241Z,101195.59
2023-05-25T04:24:58.877Z,101201.88
2023-05-25T04:26:01.943Z,101199.03
2023-05-25T04:27:05.669Z,101196.22
2023-05-25T04:28:08.715Z,101196.19
2023-05-25T04:29:32.319Z,101189.09
2023-05-25T04:30:57.462Z,101196.00
2023-05-25T04:32:30.162Z,101187.81
2023-05-25T04:34:02.880Z,101184.06
2023-05-25T04:35:08.118Z,101194.50
2023-05-25T04:36:16.899Z,101188.22
2023-05-25T04:37:19.364Z,101191.53
2023-05-25T04:38:21.920Z,101192.88
2023-05-25T04:39:24.330Z,101190.66
2023-05-25T04:40:30.321Z,101188.38
2023-05-25T04:41:34.130Z,101196.72
2023-05-25T04:42:43.045Z,101191.69
2023-05-25T04:44:04.023Z,101193.03
2023-05-25T04:45:13.107Z,101188.38
2023-05-25T04:46:17.254Z,101190.38
2023-05-25T04:47:20.136Z,101186.16
2023-05-25T04:48:24.750Z,101191.34
2023-05-25T04:49:27.495Z,101188.81
2023-05-25T04:50:30.030Z,101188.44
2023-05-25T04:51:32.716Z,101185.09
2023-05-25T04:52:35.212Z,101186.66
2023-05-25T04:53:37.791Z,101182.44
2023-05-25T04:54:42.113Z,101182.91
2023-05-25T04:55:44.832Z,101177.81
2023-05-25T04:56:47.899Z,101179.97
2023-05-25T04:57:50.191Z,101182.34
2023-05-25T04:58:53.888Z,101177.28
2023-05-25T04:59:56.503Z,101172.44
2023-05-25T05:00:59.147Z,101183.16
2023-05-25T05:02:01.533Z,101173.63
2023-05-25T05:03:04.053Z,101177.06
2023-05-25T05:04:08.347Z,101173.41
2023-05-25T05:05:10.949Z,101175.78
2023-05-25T05:06:13.570Z,101175.38
2023-05-25T05:07:15.965Z,101176.41
2023-05-25T05:08:18.665Z,101182.94
2023-05-25T05:09:21.246Z,101176.75
2023-05-25T05:10:24.279Z,101179.09
2023-05-25T05:11:31.134Z,101178.44
2023-05-25T05:12:33.810Z,101176.06
2023-05-25T05:13:37.635Z,101176.22
2023-05-25T05:14:40.035Z,101174.72
2023-05-25T05:15:43.117Z,101179.56
2023-05-25T05:16:45.667Z,101173.31
2023-05-25T05:17:48.097Z,101168.78
2023-05-25T05:18:50.585Z,101178.31
2023-05-25T05:19:52.911Z,101180.38
2023-05-25T05:20:55.392Z,101181.03
2023-05-25T05:22:00.139Z,101176.09
2023-05-25T05:23:03.882Z,101181.22
2023-05-25T05:24:06.550Z,101180.47
2023-05-25T05:25:09.591Z,101183.63
2023-05-25T05:26:15.429Z,101186.53
2023-05-25T05:27:19.740Z,101177.75
2023-05-25T05:28:30.057Z,101170.63
2023-05-25T05:29:34.491Z,101177.38
2023-05-25T05:30:36.870Z,101174.97
2023-05-25T05:31:39.408Z,101182.81
2023-05-25T05:32:41.868Z,101178.19
2023-05-25T05:33:46.003Z,101188.53
2023-05-25T05:34:48.529Z,101186.94
2023-05-25T05:36:07.475Z,101181.19
2023-05-25T05:37:11.435Z,101182.94
2023-05-25T05:38:16.627Z,101191.38
2023-05-25T05:39:20.898Z,101185.03
2023-05-25T05:40:23.193Z,101181.19
2023-05-25T05:41:25.734Z,101187.66
2023-05-25T05:42:28.187Z,101191.31
2023-05-25T05:43:30.707Z,101187.19
2023-05-25T05:44:32.985Z,101184.44
2023-05-25T05:45:35.294Z,101180.84
2023-05-25T05:46:38.588Z,101184.50
2023-05-25T05:47:41.034Z,101189.84
2023-05-25T05:48:43.706Z,101184.03
2023-05-25T05:49:46.141Z,101181.53
2023-05-25T05:50:48.508Z,101185.47
2023-05-25T05:51:50.922Z,101184.06
2023-05-25T05:52:53.886Z,101175.97
2023-05-25T05:53:56.484Z,101184.06
2023-05-25T05:54:59.251Z,101188.22
2023-05-25T05:56:02.972Z,101179.03
2023-05-25T05:57:06.751Z,101187.13
2023-05-25T05:58:09.483Z,101184.03
2023-05-25T05:59:12.087Z,101174.53
2023-05-25T06:00:16.301Z,101185.66
2023-05-25T06:01:18.647Z,101187.28
2023-05-25T06:02:21.231Z,101183.63
2023-05-25T06:03:23.988Z,101196.13
2023-05-25T06:04:29.599Z,101186.03
2023-05-25T06:05:33.542Z,101185.72
2023-05-25T06:06:37.879Z,101190.97
2023-05-25T06:07:45.831Z,101191.44
2023-05-25T06:08:48.597Z,101189.41
2023-05-25T06:09:50.979Z,101192.97
2023-05-25T06:10:53.296Z,101199.03
2023-05-25T06:11:55.587Z,101198.94
2023-05-25T06:12:57.847Z,101193.84
2023-05-25T06:14:00.384Z,101196.53
2023-05-25T06:15:02.994Z,101201.16
2023-05-25T06:16:05.680Z,101197.44
2023-05-25T06:18:10.343Z,101194.94
2023-05-25T06:19:14.685Z,101194.81
2023-05-25T06:20:17.910Z,101196.38
2023-05-25T06:21:21.944Z,101188.69
2023-05-25T06:22:28.120Z,101185.16
2023-05-25T06:23:31.753Z,101185.25
2023-05-25T06:24:34.068Z,101181.78
2023-05-25T06:25:36.591Z,101178.53
2023-05-25T06:26:38.901Z,101183.16
2023-05-25T06:27:41.250Z,101181.28
2023-05-25T06:28:43.823Z,101183.91
2023-05-25T06:29:46.270Z,101178.13
2023-05-25T06:30:48.702Z,101181.28
2023-05-25T06:31:51.381Z,101181.09
2023-05-25T06:32:54.230Z,101183.72
2023-05-25T06:33:56.983Z,101180.44
2023-05-25T06:34:59.435Z,101180.25
2023-05-25T06:36:04.966Z,101184.88
2023-05-25T06:37:08.448Z,101182.69
2023-05-25T06:38:12.433Z,101186.41
2023-05-25T06:39:14.997Z,101179.78
2023-05-25T06:40:18.269Z,101188.50
2023-05-25T06:41:21.405Z,101183.50
2023-05-25T06:42:23.833Z,101186.09
2023-05-25T06:43:39.707Z,101193.50
2023-05-25T06:44:48.718Z,101191.25
2023-05-25T06:45:51.220Z,101193.03
2023-05-25T06:46:54.948Z,101197.25
2023-05-25T06:47:57.782Z,101189.72
2023-05-25T06:49:01.802Z,101195.06
2023-05-25T06:50:04.600Z,101200.50
2023-05-25T06:51:06.920Z,101191.78
2023-05-25T06:52:09.269Z,101197.16
2023-05-25T06:53:11.822Z,101199.72
2023-05-25T06:54:15.611Z,101198.63
2023-05-25T06:55:17.887Z,101196.34
2023-05-25T06:56:20.363Z,101198.91
2023-05-25T06:57:23.958Z,101197.78
2023-05-25T06:58:27.559Z,101193.88
2023-05-25T06:59:29.917Z,101197.56
2023-05-25T07:00:32.203Z,101193.09
2023-05-25T07:01:34.585Z,101196.25
2023-05-25T07:02:37.007Z,101188.16
2023-05-25T07:03:39.398Z,101189.69
2023-05-25T07:04:42.258Z,101193.69
2023-05-25T07:05:44.931Z,101194.00
2023-05-25T07:06:48.572Z,101190.72
2023-05-25T07:07:51.069Z,101183.44
2023-05-25T07:08:53.570Z,101198.72
2023-05-25T07:09:55.847Z,101190.59
2023-05-25T07:10:58.340Z,101193.41
2023-05-25T07:12:02.464Z,101187.28
2023-05-25T07:13:04.935Z,101188.44
2023-05-25T07:14:07.291Z,101182.28
2023-05-25T07:15:10.633Z,101189.41
2023-05-25T07:16:13.210Z,101183.63
2023-05-25T07:17:16.028Z,101187.75
2023-05-25T07:18:19.134Z,101183.59
2023-05-25T07:19:21.498Z,101183.78
2023-05-25T07:20:24.423Z,101182.75
2023-05-25T07:21:26.960Z,101185.09
2023-05-25T07:22:29.289Z,101177.09
2023-05-25T07:23:32.649Z,101181.75
2023-05-25T07:24:35.014Z,101180.38
2023-05-25T07:25:40.941Z,101177.38
2023-05-25T07:26:44.637Z,101176.72
2023-05-25T07:27:50.578Z,101180.50
2023-05-25T07:28:52.983Z,101177.00
2023-05-25T07:29:55.335Z,101178.81
2023-05-25T07:30:57.808Z,101178.69
2023-05-25T07:32:00.564Z,101178.84
2023-05-25T07:33:02.967Z,101184.13
2023-05-25T07:34:05.677Z,101176.13
2023-05-25T07:35:08.200Z,101172.66
2023-05-25T07:36:10.843Z,101175.63
2023-05-25T07:37:13.191Z,101163.28
2023-05-25T07:38:15.683Z,101170.75
2023-05-25T07:39:18.025Z,101166.91
2023-05-25T07:40:20.425Z,101167.53
2023-05-25T07:41:23.199Z,101169.34
2023-05-25T07:42:25.595Z,101172.31
2023-05-25T07:43:28.060Z,101167.63
2023-05-25T07:44:30.516Z,101164.94
2023-05-25T07:45:33.137Z,101168.75
2023-05-25T07:46:35.502Z,101169.34
2023-05-25T07:47:38.018Z,101174.03
2023-05-25T07:48:40.460Z,101182.47
2023-05-25T07:49:42.933Z,101174.94
2023-05-25T07:50:45.355Z,101179.22
2023-05-25T07:51:47.658Z,101178.53
2023-05-25T07:52:49.943Z,101172.31
2023-05-25T07:53:53.800Z,101172.91
2023-05-25T07:54:56.356Z,101172.25
2023-05-25T07:55:58.662Z,101183.34
2023-05-25T07:57:01.792Z,101184.31
2023-05-25T07:58:04.370Z,101184.91
2023-05-25T07:59:07.629Z,101179.41
2023-05-25T08:00:11.281Z,101184.06
2023-05-25T08:01:16.532Z,101188.19
2023-05-25T08:02:18.905Z,101192.09
2023-05-25T08:03:31.941Z,101184.59
2023-05-25T08:04:38.608Z,101191.66
2023-05-25T08:05:41.267Z,101194.28
2023-05-25T08:06:44.667Z,101188.75
2023-05-25T08:07:46.969Z,101191.38
2023-05-25T08:08:50.174Z,101188.66
2023-05-25T08:09:52.594Z,101185.59
2023-05-25T08:10:54.939Z,101192.22
2023-05-25T08:12:12.895Z,101191.19
2023-05-25T08:13:20.010Z,101190.13
2023-05-25T08:14:24.035Z,101186.28
2023-05-25T08:15:26.777Z,101196.19
2023-05-25T08:16:29.109Z,101196.31
2023-05-25T08:17:31.628Z,101197.59
2023-05-25T08:18:33.905Z,101189.25
2023-05-25T08:19:36.265Z,101196.22
2023-05-25T08:20:38.689Z,101191.84
2023-05-25T08:21:41.066Z,101196.44
2023-05-25T08:22:44.921Z,101185.59
2023-05-25T08:23:47.255Z,101182.03
2023-05-25T08:24:50.129Z,101192.69
2023-05-25T08:25:53.709Z,101189.97
2023-05-25T08:26:56.077Z,101191.72
2023-05-25T08:27:58.368Z,101191.38
2023-05-25T08:29:01.909Z,101190.31
2023-05-25T08:30:06.299Z,101187.59
2023-05-25T08:31:08.706Z,101188.06
2023-05-25T08:32:11.328Z,101185.69
2023-05-25T08:33:13.689Z,101192.22
2023-05-25T08:34:17.003Z,101190.53
2023-05-25T08:35:19.880Z,101184.84
2023-05-25T08:36:22.150Z,101193.38
2023-05-25T08:37:25.147Z,101192.06
2023-05-25T08:38:27.501Z,101192.44
2023-05-25T08:39:29.842Z,101196.09
2023-05-25T08:40:32.755Z,101191.13
2023-05-25T08:41:36.942Z,101195.38
2023-05-25T08:42:41.442Z,101198.56
2023-05-25T08:43:43.859Z,101189.13
2023-05-25T08:44:46.214Z,101197.97
2023-05-25T08:45:48.853Z,101191.00
2023-05-25T08:46:52.449Z,101199.53
2023-05-25T08:47:59.535Z,101199.03
2023-05-25T08:49:10.472Z,101193.72
2023-05-25T08:50:17.360Z,101196.91
2023-05-25T08:51:20.161Z,101197.28
2023-05-25T08:52:24.401Z,101194.81
2023-05-25T08:53:27.646Z,101197.63
2023-05-25T08:54:37.433Z,101200.47
2023-05-25T08:55:43.226Z,101193.59
2023-05-25T08:57:06.366Z,101198.56
2023-05-25T08:58:17.760Z,101197.28
2023-05-25T08:59:44.936Z,101202.47
2023-05-25T09:00:57.956Z,101197.03
2023-05-25T09:02:19.040Z,101188.75
2023-05-25T09:03:24.061Z,101197.97
2023-05-25T09:04:27.062Z,101199.50
2023-05-25T09:05:29.853Z,101201.50
2023-05-25T09:06:34.225Z,101204.34
2023-05-25T09:07:36.764Z,101203.16
2023-05-25T09:08:39.877Z,101197.38
2023-05-25T09:09:42.819Z,101194.06
2023-05-25T09:10:45.097Z,101193.25
2023-05-25T09:11:47.815Z,101204.56
2023-05-25T09:12:52.044Z,101201.25
2023-05-25T09:13:54.899Z,101203.09
2023-05-25T09:14:58.856Z,101195.78
2023-05-25T09:16:02.456Z,101192.81
2023-05-25T09:17:05.119Z,101204.50
2023-05-25T09:18:07.544Z,101200.38
2023-05-25T09:19:10.189Z,101205.22
2023-05-25T09:20:14.290Z,101202.59
2023-05-25T09:21:16.705Z,101209.09
2023-05-25T09:22:19.177Z,101207.41
2023-05-25T09:23:21.786Z,101202.47
2023-05-25T09:24:24.363Z,101210.16
2023-05-25T09:25:28.742Z,101200.81
2023-05-25T09:26:31.409Z,101201.31
2023-05-25T09:27:35.787Z,101193.97
2023-05-25T09:28:47.098Z,101195.28
2023-05-25T09:29:53.453Z,101202.59
2023-05-25T09:30:56.544Z,101197.75
2023-05-25T09:32:00.396Z,101207.91
2023-05-25T09:33:17.972Z,101202.75
2023-05-25T09:34:20.768Z,101201.91
2023-05-25T09:35:23.850Z,101200.22
2023-05-25T09:36:26.765Z,101208.72
2023-05-25T09:37:29.597Z,101200.72
2023-05-25T09:38:32.981Z,101202.75
2023-05-25T09:39:36.020Z,101207.69
2023-05-25T09:40:38.688Z,101203.69
2023-05-25T09:41:41.715Z,101201.31
2023-05-25T09:42:44.420Z,101213.50
2023-05-25T09:43:58.106Z,101202.25
2023-05-25T09:45:09.224Z,101207.63
2023-05-25T09:46:11.819Z,101208.94
2023-05-25T09:47:15.565Z,101206.09
2023-05-25T09:48:18.378Z,101213.41
2023-05-25T09:49:21.499Z,101204.81
2023-05-25T09:50:27.224Z,101203.91
2023-05-25T09:51:33.369Z,101202.78
2023-05-25T09:52:36.618Z,101205.63
2023-05-25T09:53:39.016Z,101203.59
2023-05-25T09:54:44.919Z,101206.91
2023-05-25T09:55:53.785Z,101210.56
2023-05-25T09:56:56.977Z,101213.41
2023-05-25T09:57:59.368Z,101215.06
2023-05-25T09:59:01.690Z,101211.06
2023-05-25T10:00:05.836Z,101215.06
2023-05-25T10:01:15.279Z,101213.41
2023-05-25T10:02:17.629Z,101210.94
2023-05-25T10:03:22.199Z,101212.09
2023-05-25T10:04:25.004Z,101216.94
2023-05-25T10:05:27.493Z,101221.81
2023-05-25T10:06:32.029Z,101212.78
2023-05-25T10:07:35.292Z,101219.50
2023-05-25T10:08:38.077Z,101221.03
2023-05-25T10:09:42.033Z,101211.09
2023-05-25T10:10:45.396Z,101217.00
2023-05-25T10:11:51.058Z,101215.19
2023-05-25T10:12:55.633Z,101217.22
2023-05-25T10:14:04.109Z,101208.56
2023-05-25T10:15:07.850Z,101204.78
2023-05-25T10:16:17.657Z,101200.16
2023-05-25T10:17:23.807Z,101207.34
2023-05-25T10:18:29.004Z,101198.25
2023-05-25T10:19:37.562Z,101200.59
2023-05-25T10:20:40.414Z,101202.13
2023-05-25T10:21:48.151Z,101203.66
2023-05-25T10:23:10.835Z,101200.34
2023-05-25T10:24:24.961Z,101196.19
2023-05-25T10:25:31.825Z,101194.38
2023-05-25T10:26:39.742Z,101202.38
2023-05-25T10:27:48.157Z,101206.25
2023-05-25T10:28:51.704Z,101204.47
2023-05-25T10:29:56.502Z,101214.47
2023-05-25T10:31:00.213Z,101199.84
2023-05-25T10:32:04.993Z,101207.38
2023-05-25T10:33:08.788Z,101208.38
2023-05-25T10:34:11.559Z,101200.94
2023-05-25T10:35:14.714Z,101200.47
2023-05-25T10:36:18.361Z,101199.50
2023-05-25T10:37:21.528Z,101201.00
2023-05-25T10:38:31.558Z,101204.19
2023-05-25T10:39:34.383Z,101195.56
2023-05-25T10:40:38.519Z,101195.91
2023-05-25T10:41:42.039Z,101193.44
2023-05-25T10:42:46.616Z,101193.44
2023-05-25T10:43:50.043Z,101195.75
2023-05-25T10:44:52.744Z,101192.47
2023-05-25T10:45:56.903Z,101194.44
2023-05-25T10:47:00.419Z,101200.94
2023-05-25T10:48:03.070Z,101197.16
2023-05-25T10:49:06.056Z,101193.47
2023-05-25T10:50:27.217Z,101193.31
2023-05-25T10:51:40.141Z,101188.69
2023-05-25T10:52:42.537Z,101188.69
2023-05-25T10:53:48.547Z,101193.03
2023-05-25T10:54:56.646Z,101184.88
2023-05-25T10:56:03.343Z,101190.03
2023-05-25T10:57:11.475Z,101184.38
2023-05-25T10:58:16.655Z,101188.38
2023-05-25T10:59:27.818Z,101184.38
2023-05-25T11:00:31.498Z,101190.41
2023-05-25T11:01:50.480Z,101185.91
2023-05-25T11:02:55.616Z,101184.59
2023-05-25T11:04:16.300Z,101186.91
2023-05-25T11:05:27.950Z,101177.00
2023-05-25T11:06:44.377Z,101178.84
2023-05-25T11:07:56.902Z,101178.91
2023-05-25T11:09:00.603Z,101185.09
2023-05-25T11:10:03.811Z,101178.47
2023-05-25T11:11:06.522Z,101175.81
2023-05-25T11:12:09.138Z,101183.28
2023-05-25T11:13:37.017Z,101178.47
2023-05-25T11:14:42.856Z,101173.03
2023-05-25T11:15:45.423Z,101175.69
2023-05-25T11:17:15.266Z,101173.88
2023-05-25T11:18:18.198Z,101173.22
2023-05-25T11:19:21.619Z,101164.63
2023-05-25T11:20:27.880Z,101168.09
2023-05-25T11:21:32.890Z,101169.59
2023-05-25T11:22:37.818Z,101166.66
2023-05-25T11:23:59.588Z,101166.81
2023-05-25T11:25:03.741Z,101167.00
2023-05-25T11:26:07.996Z,101160.84
2023-05-25T11:27:10.364Z,101162.00
2023-05-25T11:28:13.173Z,101163.50
2023-05-25T11:29:16.376Z,101166.34
2023-05-25T11:30:18.749Z,101160.22
2023-05-25T11:31:27.571Z,101161.72
2023-05-25T11:32:30.012Z,101164.88
2023-05-25T11:33:32.453Z,101159.53
2023-05-25T11:34:35.150Z,101165.19
2023-05-25T11:35:37.554Z,101160.22
2023-05-25T11:36:40.030Z,101160.56
2023-05-25T11:37:50.181Z,101166.69
2023-05-25T11:39:02.517Z,101167.03
2023-05-25T11:40:09.770Z,101152.72
2023-05-25T11:41:24.588Z,101150.56
2023-05-25T11:42:27.942Z,101149.06
2023-05-25T11:43:34.331Z,101150.56
2023-05-25T11:44:39.039Z,101147.28
2023-05-25T11:45:41.671Z,101151.72
2023-05-25T11:46:44.079Z,101144.44
2023-05-25T11:47:46.549Z,101152.06
2023-05-25T11:48:53.683Z,101147.59
2023-05-25T11:49:56.652Z,101150.41
2023-05-25T11:51:07.873Z,101140.63
2023-05-25T11:52:10.736Z,101133.66
2023-05-25T11:53:13.913Z,101138.47
2023-05-25T11:54:27.173Z,101135.47
2023-05-25T11:55:29.552Z,101138.66
2023-05-25T11:56:35.762Z,101138.13
2023-05-25T11:57:40.464Z,101140.47
2023-05-25T11:58:46.376Z,101141.13
2023-05-25T11:59:51.156Z,101143.47
2023-05-25T12:00:53.738Z,101138.16
2023-05-25T12:01:57.609Z,101134.84
2023-05-25T12:03:00.200Z,101139.66
2023-05-25T12:04:11.908Z,101147.28
2023-05-25T12:05:14.446Z,101130.22
2023-05-25T12:06:28.168Z,101141.50
2023-05-25T12:07:32.194Z,101137.00
2023-05-25T12:08:36.194Z,101138.16
2023-05-25T12:09:38.513Z,101134.00
2023-05-25T12:10:51.587Z,101139.66
2023-05-25T12:11:54.197Z,101126.72
2023-05-25T12:12:58.582Z,101129.53
2023-05-25T12:14:03.837Z,101123.06
2023-05-25T12:15:06.951Z,101136.31
2023-05-25T12:16:09.311Z,101135.16
2023-05-25T12:17:11.919Z,101125.72
2023-05-25T12:18:14.769Z,101124.06
2023-05-25T12:19:18.489Z,101122.72